Jaime Montes

Chefscout - Valladolid
22 Apr 2027
Donnerstag
Verarbeitung

Persönlichkeit

Anpassungsfähigkeit (1) Ehrgeiz (20) Kontroverse (9) Loyalität (1) Druck (15) Professionalität (5) Fairness (2) Temperament (20)

Profil

Trainerstil Demokratisch
Lizenz Kontinentale C
Entschlossenheit 8
Menschenführung 13
Motivation 7
Disziplin 6
Arbeitszufriedenheit
100%
Ermüdung
0%
Rolle Chefscout
Gehalt 97.7K p/W
Vertrag 14.03.2028

Leistung

Verhalten Gut
Trainingseffektivität
46%
Spielerentwicklung
40%
Verletzungsprävention
50%
Taktische Umsetzung
60%

Letzte Ereignisse

Spieler begutachtet jetzt
Nahm an einer Scouting-Besprechung teil jetzt
Nahm an einer Scouting-Besprechung teil jetzt
Empfahl ein Transferziel jetzt
Nahm an einer Scouting-Besprechung teil jetzt
Spieler begutachtet jetzt
Spieler begutachtet 7T her
Spieler begutachtet 7T her

Aktuell beobachtet

148
Spieler Verein Status Fähigkeit Vertrauen Beobachtet Zuletzt beobachtet Letzte Stimme
Marvin Park Las Palmas Aktiv 136 / 127 40% 2 21.04.2027 -
Sidiki Chérif Coventry City Aktiv 124 / 138 40% 2 21.04.2027 -
Jonás Luna Santa Clara Aktiv 119 / 124 40% 1 21.04.2027 -
Unai Vencedor Burgos Aktiv 130 / 129 40% 1 21.04.2027 -
Abel Bretones Osasuna Aktiv 133 / 143 40% 4 20.04.2027 -
Antonio Blanco Alavés Aktiv 137 / 141 40% 1 20.04.2027 -
Alejandro Francés Girona Aktiv 123 / 136 40% 1 20.04.2027 -
Ryan Sessegnon Fulham Aktiv 152 / 144 40% 1 19.04.2027 -
Harry Clarke Preston Aktiv 130 / 126 40% 1 19.04.2027 -
Guille Rosas Gijón Aktiv 141 / 136 40% 1 19.04.2027 Mehr Infos nötig
Yusi Alavés Aktiv 124 / 126 40% 3 18.04.2027 -
Eliás Montiel Pachuca Aktiv 121 / 124 40% 5 18.04.2027 -
Max Bird Birmingham Aktiv 127 / 125 40% 4 18.04.2027 -
Adrià Altimira Deportivo La Coruña Aktiv 130 / 128 40% 3 18.04.2027 -
Ilaix Moriba Celta Aktiv 156 / 153 40% 3 18.04.2027 -
Jan Bürger Gillingham Aktiv 110 / 121 40% 1 18.04.2027 -
Thomas Waddingham Portsmouth Aktiv 101 / 118 40% 1 16.04.2027 -
Keagan Mokoena Free State Stars Aktiv 85 / 95 40% 1 16.04.2027 -
Mathys Tel Tottenham Aktiv 148 / 153 40% 1 16.04.2027 -
Iwan Morgan Grimsby Town Aktiv 119 / 110 40% 2 15.04.2027 -
Rodrigo Villalba River Plate Aktiv 86 / 106 40% 1 15.04.2027 -
Welington Southampton Aktiv 127 / 135 40% 3 13.04.2027 -
Víctor Chust Elche Aktiv 135 / 138 40% 1 13.04.2027 -
Rayan Bournemouth Aktiv 128 / 138 40% 3 12.04.2027 -
Fletcher Holman Swindon Town Aktiv 78 / 87 40% 2 12.04.2027 -
Thulani Erasmus Platinum Stars Aktiv 92 / 99 40% 1 12.04.2027 -
Pol Lozano Espanyol Aktiv 144 / 135 40% 6 11.04.2027 -
Richard Ledezma Guadalajara Aktiv 136 / 128 40% 2 11.04.2027 -
Toby Collyer West Bromwich Albion Aktiv 131 / 129 40% 1 09.04.2027 -
Kevin Vazquez Cruz Azul Aktiv 146 / 147 40% 5 07.04.2027 -
Jon Garro Real Sociedad Aktiv 88 / 87 40% 1 07.04.2027 -
Josh King Chelsea Aktiv 129 / 143 40% 1 07.04.2027 -
Warren Zaïre-Emery Paris Saint-Germain Aktiv 159 / 159 40% 2 05.04.2027 -
Ethan Galbraith Swansea City Aktiv 133 / 129 40% 3 05.04.2027 -
Omar El Hilali Espanyol Aktiv 145 / 153 40% 4 05.04.2027 -
Imrân Louza Watford Aktiv 136 / 131 40% 1 05.04.2027 -
Daniel Vernattus Metalist Aktiv 89 / 91 40% 1 05.04.2027 -
Percy Jali Free State Stars Aktiv 99 / 107 40% 1 05.04.2027 -
Víctor Guzmán Monterrey Aktiv 146 / 133 40% 1 03.04.2027 -
Alessandro Buongiorno Sassuolo Aktiv 150 / 156 40% 1 02.04.2027 -
Franco Romero Toluca Aktiv 143 / 133 40% 3 31.03.2027 -
Yehor Yarmoliuk Brentford Aktiv 143 / 150 40% 1 30.03.2027 -
Baba N'Diaye Chelyabinsk Aktiv 69 / 87 40% 1 30.03.2027 -
Senny Mayulu Paris Saint-Germain Aktiv 143 / 149 40% 1 30.03.2027 -
Óscar Mingueza Crystal Palace Aktiv 153 / 148 40% 2 28.03.2027 -
Shea Charles Southampton Aktiv 142 / 131 40% 3 26.03.2027 -
Omar Campos Cruz Azul Aktiv 113 / 120 40% 3 25.03.2027 -
Javi Rodríguez Celta Aktiv 154 / 148 40% 4 22.03.2027 -
Derry Murkin Derby County Aktiv 133 / 128 40% 1 21.03.2027 -
Fran García Betis Aktiv 145 / 145 40% 2 15.03.2027 -
Ramón Juárez Club America Aktiv 140 / 140 40% 5 14.03.2027 -
Tim Iroegbunam Hull City Aktiv 142 / 134 40% 1 14.03.2027 -
Daijiro Chirino Almería Aktiv 122 / 139 40% 1 12.03.2027 -
Harrison Ofori Liberty Professionals Aktiv 100 / 110 40% 1 12.03.2027 -
Lwanda Mbanjwa Maritzburg United Aktiv 90 / 96 40% 1 12.03.2027 -
Mateus Mané Manchester United Aktiv 131 / 143 40% 1 11.03.2027 -
Agustín Fernández NK Zavrc Aktiv 103 / 101 40% 1 11.03.2027 -
Jesús Orozco Chiquete Cruz Azul Aktiv 125 / 137 40% 1 09.03.2027 -
Amaury Morales Pumas UNAM Aktiv 126 / 125 40% 1 09.03.2027 -
Rocco Vata Watford Aktiv 115 / 120 40% 1 09.03.2027 -
Erik Lira Cruz Azul Aktiv 134 / 143 40% 1 06.03.2027 -
Nicolás Fernández Mercau Shakhtar Bericht bereit 153 / 139 67% 3 05.03.2027 -
Christ Inao Oulaï Fiorentina Aktiv 138 / 141 40% 1 25.01.2027 -
Stanislav Agkatsev Sunderland Verhandlung 132 / 133 66% 1 01.01.2027 -
Marcel Ruiz RC Lens Verhandlung 140 / 141 66% 1 01.01.2027 -
Kota Tawaratsumida River Plate Bericht bereit 133 / 136 66% 1 01.01.2027 -
Toni Fruk KV Mechelen Bericht bereit 132 / 133 89% 1 01.01.2027 Befürworten
Yoel Lago Celta Verloren 112 / 121 62% 1 01.01.2027 -
Ez Abde Girona Aktiv 151 / 153 40% 1 01.01.2027 -
Urko Izeta Cádiz Aktiv 140 / 123 40% 1 31.12.2026 -
Adnan Courtois KV Oostende Aktiv 142 / 132 40% 2 29.12.2026 -
Deniz Ertaş Konyaspor Aktiv 117 / 133 40% 2 29.12.2026 -
Íker Blanco Independiente Medellin Aktiv 102 / 99 40% 1 29.12.2026 -
Razvan Balasa Crvena Zvezda Aktiv 146 / 149 40% 1 29.12.2026 -
Sabino González Sarmiento Aktiv 87 / 104 40% 1 27.12.2026 -
Santino Barbi Talleres Aktiv 119 / 128 40% 8 26.12.2026 -
Efraín Álvarez Guadalajara Aktiv 130 / 124 40% 1 26.12.2026 -
Nicolás Soto America de Cali Aktiv 82 / 103 40% 1 24.12.2026 -
Agustín Módica Gimnasia y Esgrima Aktiv 127 / 118 40% 2 23.12.2026 -
Álvaro Banquero Independiente Aktiv 119 / 121 40% 1 23.12.2026 -
Tyrese Campbell Sheffield United Aktiv 134 / 122 40% 1 23.12.2026 -
Thiago Brentford Aktiv 142 / 147 40% 1 22.12.2026 -
Jackson Muleka Konyaspor Aktiv 118 / 136 40% 1 22.12.2026 -
Lucas Bersce Nueva Chicago Aktiv 88 / 106 40% 1 21.12.2026 -
Elis Bishesari IFK Goteborg Aktiv 127 / 119 40% 1 16.12.2026 -
Viktor Baier Viktoria Plzen Aktiv 123 / 121 40% 1 15.12.2026 -
Yousef Salech Cardiff City Aktiv 131 / 119 40% 1 15.12.2026 -
Fabricio Díaz San Lorenzo Aktiv 86 / 105 40% 2 12.12.2026 -
Evanilson Bournemouth Aktiv 156 / 146 40% 2 12.12.2026 -
Alfonso Álvarez Ferro Carril Oeste Aktiv 79 / 105 40% 1 12.12.2026 -
Adrián Alcaraz Pachuca Aktiv 100 / 104 40% 1 12.12.2026 -
Renato Ardissono San Lorenzo Aktiv 85 / 99 40% 1 07.12.2026 -
Juan González Atlético Tucumán Aktiv 75 / 88 40% 1 05.12.2026 -
Williams Mothiba Black Aces Aktiv 102 / 95 40% 2 04.12.2026 -
Thiago Perruisset Boca Juniors Aktiv 95 / 102 40% 1 04.12.2026 -
Luis Montilla San Telmo Aktiv 80 / 104 40% 1 02.12.2026 -
Manuel Ospina Cortulua Aktiv 121 / 126 40% 1 01.12.2026 -
Gift Hlatshwayo Free State Stars Aktiv 95 / 104 40% 4 29.11.2026 -
José Paradela Cruz Azul Aktiv 151 / 142 40% 2 29.11.2026 Mehr Infos nötig
Diego Lainez Tigres Aktiv 139 / 123 40% 2 29.11.2026 -
Tommaso Orsini Sambenedettese Aktiv 85 / 96 40% 1 29.11.2026 -
Agustín Chávez Unión de Santa Fe Aktiv 88 / 100 40% 2 25.11.2026 -
Aimar Osasuna Aktiv 152 / 152 40% 1 25.11.2026 -
Walter Molina Defensa y Justicia Aktiv 83 / 94 40% 1 22.11.2026 -
Nicolás Castro Toluca Aktiv 124 / 127 40% 1 21.11.2026 -
Jeremías Martinet River Plate Aktiv 120 / 115 40% 1 21.11.2026 -
Tomás González Piast Aktiv 130 / 110 40% 1 20.11.2026 -
Duk Atlas Aktiv 118 / 123 40% 3 17.11.2026 -
Martín D'Aurizio Huracán Aktiv 74 / 105 40% 2 16.11.2026 -
Lautaro Cueli San Lorenzo Aktiv 75 / 96 40% 1 16.11.2026 -
Juan Diego Arboleda Leones Aktiv 72 / 90 40% 1 15.11.2026 -
David Shrem HNK Gorica Aktiv 73 / 100 40% 1 13.11.2026 -
Tani Oluwaseyi Villarreal Aktiv 144 / 144 40% 1 13.11.2026 -
Guillaume Restes Toulouse FC Aktiv 137 / 132 40% 1 09.11.2026 -
Robin Risser RC Lens Aktiv 137 / 143 40% 3 08.11.2026 -
Federico Bonilla Nacional Aktiv 81 / 99 40% 1 08.11.2026 -
Juan Manuel Centurión Independiente Aktiv 105 / 99 40% 1 07.11.2026 -
Santiago Ferez Belgrano Aktiv 81 / 107 40% 1 07.11.2026 -
Juan Ignacio Berasi Colón Aktiv 100 / 99 40% 1 05.11.2026 -
Lautaro Vera Platense Aktiv 90 / 99 40% 1 03.11.2026 -
Ramiro Ruiz Rodríguez Atlético Tucumán Aktiv 116 / 118 40% 1 02.11.2026 -
Rodrigo Parra Guadalajara Aktiv 89 / 104 40% 1 31.10.2026 -
Jeremías Robledo Acosta Newell's Old Boys Aktiv 69 / 101 40% 1 29.10.2026 -
David Cordova Atletico Venezuela Aktiv 80 / 92 40% 1 24.10.2026 -
Juan Pablo Insúa Barracas Central Aktiv 89 / 100 40% 1 23.10.2026 -
Santino Gianoli Almirante Brown Aktiv 86 / 89 40% 1 23.10.2026 -
Mateo Mendoza Godoy Cruz Aktiv 120 / 133 40% 3 19.10.2026 -
Lautaro Herrera Estudiantes Aktiv 93 / 112 40% 1 19.10.2026 -
Mateo Raschia Unión de Santa Fe Aktiv 102 / 88 40% 1 19.10.2026 -
Noah Sadiki Sunderland Aktiv 134 / 141 40% 1 16.10.2026 -
Hervin Goyes Deportivo Pasto Aktiv 107 / 107 40% 1 14.10.2026 -
Lucas Agazzi Defensor Sporting Aktiv 130 / 125 40% 1 13.10.2026 -
Agustín De la Cuesta Racing Aktiv 102 / 123 40% 1 11.10.2026 -
El Hadji Malick Diouf Brentford Aktiv 127 / 137 40% 1 11.10.2026 -
Alexandro Maidana Talleres Aktiv 102 / 108 40% 1 09.10.2026 -
José Pachuca Puebla Aktiv 112 / 108 40% 2 07.10.2026 -
Ignacio Perruzzi San Lorenzo Aktiv 122 / 124 40% 1 07.10.2026 -
Santiago Fernández Talleres Aktiv 121 / 133 40% 2 06.10.2026 -
Axel Frugone Defensor Sporting Aktiv 105 / 113 40% 1 06.10.2026 -
Mbekezeli Mbokazi Chicago Fire Aktiv 125 / 125 40% 1 21.09.2026 -
Mandla Erasmus SuperSport United Aktiv 107 / 127 40% 1 21.09.2026 -
Nahuel Arias San Lorenzo Aktiv 125 / 112 40% 1 20.09.2026 -
Thiago Acosta River Plate Aktiv 106 / 104 40% 1 17.09.2026 -
Leny Yoro Manchester United Aktiv 132 / 151 40% 1 15.09.2026 -
Tobías Ramírez River Plate Aktiv 127 / 136 40% 1 08.09.2026 -
Jack Hinshelwood Brighton Aktiv 134 / 150 40% 1 31.08.2026 -
Ignacio Campo Huracán Aktiv 105 / 113 40% 1 18.08.2026 -
Rico Lewis Manchester City Aktiv 149 / 144 40% 1 02.08.2026 -